sensor_id;sensor_type;location;lat;lon;timestamp;pressure;altitude;pressure_sealevel;temperature;humidity
77639;BME280;66802;52.574;14.398;2024-02-26T00:02:15;100570.66;;;2.68;89.94
77639;BME280;66802;52.574;14.398;2024-02-26T00:04:41;100570.97;;;2.64;90.54
77639;BME280;66802;52.574;14.398;2024-02-26T00:07:06;100577.06;;;2.53;90.82
77639;BME280;66802;52.574;14.398;2024-02-26T00:09:32;100561.63;;;2.45;90.85
77639;BME280;66802;52.574;14.398;2024-02-26T00:12:01;100573.53;;;2.40;91.21
77639;BME280;66802;52.574;14.398;2024-02-26T00:14:26;100564.94;;;2.36;91.50
77639;BME280;66802;52.574;14.398;2024-02-26T00:16:52;100560.22;;;2.40;91.14
77639;BME280;66802;52.574;14.398;2024-02-26T00:19:17;100560.97;;;2.42;91.43
77639;BME280;66802;52.574;14.398;2024-02-26T00:21:42;100562.88;;;2.40;90.70
77639;BME280;66802;52.574;14.398;2024-02-26T00:24:08;100570.16;;;2.38;91.09
77639;BME280;66802;52.574;14.398;2024-02-26T00:26:34;100569.41;;;2.36;90.96
77639;BME280;66802;52.574;14.398;2024-02-26T00:28:59;100573.03;;;2.35;90.70
77639;BME280;66802;52.574;14.398;2024-02-26T00:31:24;100567.78;;;2.33;90.10
77639;BME280;66802;52.574;14.398;2024-02-26T00:33:50;100560.97;;;2.29;90.62
77639;BME280;66802;52.574;14.398;2024-02-26T00:36:15;100564.06;;;2.23;90.56
77639;BME280;66802;52.574;14.398;2024-02-26T00:38:41;100565.31;;;2.17;90.14
77639;BME280;66802;52.574;14.398;2024-02-26T00:41:08;100554.91;;;2.14;90.49
77639;BME280;66802;52.574;14.398;2024-02-26T00:43:33;100555.09;;;2.11;91.63
77639;BME280;66802;52.574;14.398;2024-02-26T00:45:59;100545.09;;;2.15;91.99
77639;BME280;66802;52.574;14.398;2024-02-26T00:48:24;100550.84;;;2.22;91.72
77639;BME280;66802;52.574;14.398;2024-02-26T00:50:51;100560.22;;;2.14;92.33
77639;BME280;66802;52.574;14.398;2024-02-26T00:53:16;100555.94;;;1.99;92.83
77639;BME280;66802;52.574;14.398;2024-02-26T00:55:42;100536.97;;;1.91;93.00
77639;BME280;66802;52.574;14.398;2024-02-26T00:58:07;100542.22;;;1.93;93.47
77639;BME280;66802;52.574;14.398;2024-02-26T04:00:06;100558.84;;;0.89;90.55
77639;BME280;66802;52.574;14.398;2024-02-26T04:02:32;100552.88;;;0.85;90.43
77639;BME280;66802;52.574;14.398;2024-02-26T04:04:57;100560.00;;;0.85;91.19
77639;BME280;66802;52.574;14.398;2024-02-26T04:07:24;100561.97;;;0.95;91.03
77639;BME280;66802;52.574;14.398;2024-02-26T04:09:50;100551.88;;;1.00;89.79
77639;BME280;66802;52.574;14.398;2024-02-26T04:12:15;100558.66;;;0.92;89.79
77639;BME280;66802;52.574;14.398;2024-02-26T04:14:40;100558.75;;;0.90;90.13
77639;BME280;66802;52.574;14.398;2024-02-26T04:17:06;100565.00;;;0.89;90.18
77639;BME280;66802;52.574;14.398;2024-02-26T04:19:31;100559.78;;;0.88;90.70
77639;BME280;66802;52.574;14.398;2024-02-26T04:21:57;100562.06;;;0.80;90.41
77639;BME280;66802;52.574;14.398;2024-02-26T04:24:22;100562.25;;;0.77;91.19
77639;BME280;66802;52.574;14.398;2024-02-26T04:26:47;100561.72;;;0.71;91.72
77639;BME280;66802;52.574;14.398;2024-02-26T04:29:15;100560.84;;;0.71;91.97
77639;BME280;66802;52.574;14.398;2024-02-26T04:31:40;100563.59;;;0.69;92.32
77639;BME280;66802;52.574;14.398;2024-02-26T04:34:07;100564.38;;;0.71;92.29
77639;BME280;66802;52.574;14.398;2024-02-26T04:36:33;100563.44;;;0.72;92.66
77639;BME280;66802;52.574;14.398;2024-02-26T04:38:58;100572.44;;;0.70;93.26
77639;BME280;66802;52.574;14.398;2024-02-26T04:41:24;100571.56;;;0.69;93.18
77639;BME280;66802;52.574;14.398;2024-02-26T04:43:49;100576.03;;;0.69;93.64
77639;BME280;66802;52.574;14.398;2024-02-26T04:46:14;100560.94;;;0.69;93.85
77639;BME280;66802;52.574;14.398;2024-02-26T04:48:40;100568.81;;;0.71;93.59
77639;BME280;66802;52.574;14.398;2024-02-26T04:51:07;100575.19;;;0.68;94.11
77639;BME280;66802;52.574;14.398;2024-02-26T04:53:32;100569.94;;;0.67;94.10
77639;BME280;66802;52.574;14.398;2024-02-26T04:55:58;100574.22;;;0.69;94.75
77639;BME280;66802;52.574;14.398;2024-02-26T04:58:23;100578.69;;;0.69;94.92
77639;BME280;66802;52.574;14.398;2024-02-26T05:00:49;100573.00;;;0.75;95.23
77639;BME280;66802;52.574;14.398;2024-02-26T05:03:15;100585.31;;;0.76;94.96
77639;BME280;66802;52.574;14.398;2024-02-26T05:05:44;100584.28;;;0.79;95.29
77639;BME280;66802;52.574;14.398;2024-02-26T05:08:09;100581.63;;;0.79;95.43
77639;BME280;66802;52.574;14.398;2024-02-26T05:10:35;100591.22;;;0.81;95.14
77639;BME280;66802;52.574;14.398;2024-02-26T05:13:05;100585.56;;;1.00;93.60
77639;BME280;66802;52.574;14.398;2024-02-26T05:15:30;100588.91;;;0.89;93.80
77639;BME280;66802;52.574;14.398;2024-02-26T05:17:55;100587.00;;;1.05;92.97
77639;BME280;66802;52.574;14.398;2024-02-26T05:20:21;100593.19;;;0.92;93.21
77639;BME280;66802;52.574;14.398;2024-02-26T05:22:46;100604.41;;;0.97;93.36
77639;BME280;66802;52.574;14.398;2024-02-26T05:25:15;100602.50;;;0.85;93.22
77639;BME280;66802;52.574;14.398;2024-02-26T05:27:41;100607.50;;;0.89;92.96
77639;BME280;66802;52.574;14.398;2024-02-26T05:30:07;100618.34;;;0.86;93.49
77639;BME280;66802;52.574;14.398;2024-02-26T05:32:32;100615.22;;;0.80;93.26
77639;BME280;66802;52.574;14.398;2024-02-26T05:34:58;100614.06;;;0.69;94.15
77639;BME280;66802;52.574;14.398;2024-02-26T05:37:23;100620.41;;;0.67;94.72
77639;BME280;66802;52.574;14.398;2024-02-26T05:39:49;100619.78;;;0.63;95.06
77639;BME280;66802;52.574;14.398;2024-02-26T05:42:14;100624.41;;;0.60;94.85
77639;BME280;66802;52.574;14.398;2024-02-26T05:44:40;100626.13;;;0.61;95.53
77639;BME280;66802;52.574;14.398;2024-02-26T05:47:05;100627.94;;;0.60;95.22
77639;BME280;66802;52.574;14.398;2024-02-26T05:49:30;100638.47;;;0.62;95.36
77639;BME280;66802;52.574;14.398;2024-02-26T05:51:56;100639.50;;;0.59;95.25
77639;BME280;66802;52.574;14.398;2024-02-26T05:54:21;100641.97;;;0.62;95.54
77639;BME280;66802;52.574;14.398;2024-02-26T05:56:47;100644.81;;;0.59;95.65
77639;BME280;66802;52.574;14.398;2024-02-26T05:59:12;100644.72;;;0.61;96.17
77639;BME280;66802;52.574;14.398;2024-02-26T06:01:38;100643.41;;;0.54;96.09
77639;BME280;66802;52.574;14.398;2024-02-26T06:04:03;100662.94;;;0.53;96.76
77639;BME280;66802;52.574;14.398;2024-02-26T06:06:28;100660.28;;;0.53;96.41
77639;BME280;66802;52.574;14.398;2024-02-26T06:08:54;100662.81;;;0.54;96.51
77639;BME280;66802;52.574;14.398;2024-02-26T06:11:19;100664.44;;;0.57;97.03
77639;BME280;66802;52.574;14.398;2024-02-26T06:13:45;100655.44;;;0.59;97.10
77639;BME280;66802;52.574;14.398;2024-02-26T06:16:10;100661.59;;;0.60;97.00
77639;BME280;66802;52.574;14.398;2024-02-26T06:18:36;100654.41;;;0.62;97.43
77639;BME280;66802;52.574;14.398;2024-02-26T06:21:01;100664.00;;;0.64;97.33
77639;BME280;66802;52.574;14.398;2024-02-26T06:23:27;100665.47;;;0.68;97.21
77639;BME280;66802;52.574;14.398;2024-02-26T06:25:53;100670.72;;;0.70;96.89
77639;BME280;66802;52.574;14.398;2024-02-26T06:28:19;100666.06;;;0.73;97.25
77639;BME280;66802;52.574;14.398;2024-02-26T06:30:44;100668.53;;;0.77;97.25
77639;BME280;66802;52.574;14.398;2024-02-26T06:33:11;100674.16;;;0.86;96.76
77639;BME280;66802;52.574;14.398;2024-02-26T06:35:37;100681.91;;;0.89;96.22
77639;BME280;66802;52.574;14.398;2024-02-26T06:38:03;100679.06;;;0.92;96.45
77639;BME280;66802;52.574;14.398;2024-02-26T06:40:29;100674.88;;;0.88;95.86
77639;BME280;66802;52.574;14.398;2024-02-26T06:42:55;100689.63;;;0.94;96.65
77639;BME280;66802;52.574;14.398;2024-02-26T06:45:20;100689.78;;;0.91;96.76
77639;BME280;66802;52.574;14.398;2024-02-26T06:47:45;100683.81;;;0.87;97.05
77639;BME280;66802;52.574;14.398;2024-02-26T06:50:12;100689.88;;;0.89;96.87
77639;BME280;66802;52.574;14.398;2024-02-26T06:52:38;100676.50;;;0.91;97.04
77639;BME280;66802;52.574;14.398;2024-02-26T06:55:04;100673.75;;;0.92;97.30
77639;BME280;66802;52.574;14.398;2024-02-26T06:57:30;100680.69;;;0.95;97.59
77639;BME280;66802;52.574;14.398;2024-02-26T06:59:55;100687.72;;;0.96;97.62
77639;BME280;66802;52.574;14.398;2024-02-26T07:02:21;100687.63;;;0.97;98.07
77639;BME280;66802;52.574;14.398;2024-02-26T07:04:46;100695.59;;;0.97;98.19
77639;BME280;66802;52.574;14.398;2024-02-26T07:07:12;100693.59;;;1.01;98.26
77639;BME280;66802;52.574;14.398;2024-02-26T07:09:37;100693.31;;;1.05;98.26
77639;BME280;66802;52.574;14.398;2024-02-26T07:12:03;100697.38;;;1.11;98.24
77639;BME280;66802;52.574;14.398;2024-02-26T07:14:28;100698.06;;;1.15;98.65
77639;BME280;66802;52.574;14.398;2024-02-26T07:16:54;100703.19;;;1.18;98.62
77639;BME280;66802;52.574;14.398;2024-02-26T07:19:19;100705.53;;;1.22;98.47
77639;BME280;66802;52.574;14.398;2024-02-26T07:21:45;100705.19;;;1.28;98.94
77639;BME280;66802;52.574;14.398;2024-02-26T07:24:10;100707.63;;;1.31;99.26
77639;BME280;66802;52.574;14.398;2024-02-26T07:26:35;100703.84;;;1.35;99.31
77639;BME280;66802;52.574;14.398;2024-02-26T07:29:01;100701.00;;;1.38;99.70
77639;BME280;66802;52.574;14.398;2024-02-26T07:31:26;100699.19;;;1.39;99.74
77639;BME280;66802;52.574;14.398;2024-02-26T07:33:52;100708.38;;;1.48;100.00
77639;BME280;66802;52.574;14.398;2024-02-26T07:36:17;100704.19;;;1.58;99.69
77639;BME280;66802;52.574;14.398;2024-02-26T07:38:43;100704.19;;;1.58;100.00
77639;BME280;66802;52.574;14.398;2024-02-26T07:41:09;100707.88;;;1.55;100.00
77639;BME280;66802;52.574;14.398;2024-02-26T07:43:34;100712.34;;;1.55;100.00
77639;BME280;66802;52.574;14.398;2024-02-26T07:45:59;100710.03;;;1.63;100.00
77639;BME280;66802;52.574;14.398;2024-02-26T07:48:25;100704.25;;;1.70;99.82
77639;BME280;66802;52.574;14.398;2024-02-26T07:50:51;100710.25;;;1.60;100.00
77639;BME280;66802;52.574;14.398;2024-02-26T07:53:16;100711.88;;;1.62;100.00
77639;BME280;66802;52.574;14.398;2024-02-26T07:55:42;100724.41;;;1.60;100.00
77639;BME280;66802;52.574;14.398;2024-02-26T07:58:07;100717.06;;;1.64;100.00
77639;BME280;66802;52.574;14.398;2024-02-26T08:00:33;100718.69;;;1.66;100.00
77639;BME280;66802;52.574;14.398;2024-02-26T08:02:58;100727.97;;;1.73;100.00
77639;BME280;66802;52.574;14.398;2024-02-26T08:05:23;100727.16;;;1.73;100.00
77639;BME280;66802;52.574;14.398;2024-02-26T08:07:50;100732.25;;;1.76;100.00
77639;BME280;66802;52.574;14.398;2024-02-26T08:10:15;100723.03;;;1.81;100.00
77639;BME280;66802;52.574;14.398;2024-02-26T08:12:41;100720.53;;;1.93;100.00
77639;BME280;66802;52.574;14.398;2024-02-26T08:15:08;100715.31;;;1.91;100.00
77639;BME280;66802;52.574;14.398;2024-02-26T08:17:34;100720.91;;;1.87;100.00
77639;BME280;66802;52.574;14.398;2024-02-26T08:20:01;100727.66;;;1.92;100.00
77639;BME280;66802;52.574;14.398;2024-02-26T08:22:27;100718.72;;;1.93;100.00
77639;BME280;66802;52.574;14.398;2024-02-26T08:24:53;100727.81;;;2.03;100.00
77639;BME280;66802;52.574;14.398;2024-02-26T08:27:18;100720.19;;;2.11;100.00
77639;BME280;66802;52.574;14.398;2024-02-26T08:29:44;100724.41;;;2.01;100.00
77639;BME280;66802;52.574;14.398;2024-02-26T08:32:09;100718.22;;;2.01;100.00
77639;BME280;66802;52.574;14.398;2024-02-26T08:34:34;100717.06;;;2.05;100.00
77639;BME280;66802;52.574;14.398;2024-02-26T08:37:00;100718.56;;;2.09;100.00
77639;BME280;66802;52.574;14.398;2024-02-26T08:39:25;100721.88;;;2.12;100.00
77639;BME280;66802;52.574;14.398;2024-02-26T08:41:51;100715.72;;;2.12;100.00
77639;BME280;66802;52.574;14.398;2024-02-26T08:44:17;100717.66;;;2.23;100.00
77639;BME280;66802;52.574;14.398;2024-02-26T08:46:42;100717.09;;;2.17;100.00
77639;BME280;66802;52.574;14.398;2024-02-26T08:49:07;100718.81;;;2.18;100.00
77639;BME280;66802;52.574;14.398;2024-02-26T08:51:33;100717.94;;;2.18;100.00
77639;BME280;66802;52.574;14.398;2024-02-26T08:53:58;100721.69;;;2.15;100.00
77639;BME280;66802;52.574;14.398;2024-02-26T08:56:24;100717.22;;;2.16;100.00
77639;BME280;66802;52.574;14.398;2024-02-26T08:58:49;100720.22;;;2.24;100.00
77639;BME280;66802;52.574;14.398;2024-02-26T09:01:18;100714.69;;;2.27;100.00
77639;BME280;66802;52.574;14.398;2024-02-26T09:03:44;100711.91;;;2.29;100.00
77639;BME280;66802;52.574;14.398;2024-02-26T09:06:09;100713.00;;;2.39;100.00
77639;BME280;66802;52.574;14.398;2024-02-26T09:08:35;100710.69;;;2.47;100.00
77639;BME280;66802;52.574;14.398;2024-02-26T09:11:03;100710.16;;;2.54;100.00
77639;BME280;66802;52.574;14.398;2024-02-26T09:13:29;100706.00;;;2.63;100.00
77639;BME280;66802;52.574;14.398;2024-02-26T09:15:54;100704.75;;;2.81;100.00
77639;BME280;66802;52.574;14.398;2024-02-26T09:18:20;100702.53;;;2.88;100.00
77639;BME280;66802;52.574;14.398;2024-02-26T09:20:45;100695.28;;;2.90;100.00
77639;BME280;66802;52.574;14.398;2024-02-26T09:23:11;100702.84;;;2.96;100.00
77639;BME280;66802;52.574;14.398;2024-02-26T09:25:36;100696.66;;;3.08;100.00
77639;BME280;66802;52.574;14.398;2024-02-26T09:28:02;100701.13;;;3.08;100.00
77639;BME280;66802;52.574;14.398;2024-02-26T09:30:27;100702.19;;;3.05;100.00
77639;BME280;66802;52.574;14.398;2024-02-26T09:32:52;100707.31;;;3.08;100.00
77639;BME280;66802;52.574;14.398;2024-02-26T09:35:18;100707.53;;;3.18;100.00
77639;BME280;66802;52.574;14.398;2024-02-26T09:37:44;100701.78;;;3.24;100.00
77639;BME280;66802;52.574;14.398;2024-02-26T09:40:10;100712.53;;;3.35;100.00
77639;BME280;66802;52.574;14.398;2024-02-26T09:42:43;100710.81;;;3.34;100.00
77639;BME280;66802;52.574;14.398;2024-02-26T09:45:15;100708.25;;;3.33;100.00
77639;BME280;66802;52.574;14.398;2024-02-26T09:47:42;100712.59;;;3.46;100.00
77639;BME280;66802;52.574;14.398;2024-02-26T09:50:09;100714.28;;;3.47;100.00
77639;BME280;66802;52.574;14.398;2024-02-26T09:52:38;100713.59;;;3.45;100.00
77639;BME280;66802;52.574;14.398;2024-02-26T09:55:04;100720.28;;;3.51;100.00
77639;BME280;66802;52.574;14.398;2024-02-26T09:57:31;100714.06;;;3.63;100.00
77639;BME280;66802;52.574;14.398;2024-02-26T09:59:59;100713.31;;;3.61;100.00
77639;BME280;66802;52.574;14.398;2024-02-26T10:02:30;100717.69;;;3.62;100.00
77639;BME280;66802;52.574;14.398;2024-02-26T10:04:59;100710.81;;;3.71;100.00
77639;BME280;66802;52.574;14.398;2024-02-26T10:07:28;100710.16;;;3.80;100.00
77639;BME280;66802;52.574;14.398;2024-02-26T10:09:55;100711.19;;;3.90;100.00
77639;BME280;66802;52.574;14.398;2024-02-26T10:12:21;100709.84;;;4.08;100.00
77639;BME280;66802;52.574;14.398;2024-02-26T10:14:47;100703.28;;;4.12;100.00
77639;BME280;66802;52.574;14.398;2024-02-26T10:17:12;100704.19;;;4.24;100.00
77639;BME280;66802;52.574;14.398;2024-02-26T10:19:38;100705.94;;;4.36;100.00
77639;BME280;66802;52.574;14.398;2024-02-26T10:22:03;100703.16;;;4.37;100.00
77639;BME280;66802;52.574;14.398;2024-02-26T10:24:30;100713.69;;;4.52;100.00
77639;BME280;66802;52.574;14.398;2024-02-26T10:26:56;100707.75;;;4.59;100.00
77639;BME280;66802;52.574;14.398;2024-02-26T10:29:24;100703.75;;;4.65;100.00
77639;BME280;66802;52.574;14.398;2024-02-26T10:31:52;100704.34;;;4.68;100.00
77639;BME280;66802;52.574;14.398;2024-02-26T10:34:18;100712.03;;;4.73;100.00
77639;BME280;66802;52.574;14.398;2024-02-26T10:36:44;100708.13;;;4.77;100.00
77639;BME280;66802;52.574;14.398;2024-02-26T10:39:12;100706.19;;;4.79;100.00
77639;BME280;66802;52.574;14.398;2024-02-26T10:41:40;100708.75;;;4.81;100.00
77639;BME280;66802;52.574;14.398;2024-02-26T10:44:05;100706.00;;;4.93;100.00
77639;BME280;66802;52.574;14.398;2024-02-26T10:46:31;100708.56;;;5.06;100.00
77639;BME280;66802;52.574;14.398;2024-02-26T10:48:56;100704.44;;;5.13;100.00
77639;BME280;66802;52.574;14.398;2024-02-26T10:51:26;100707.97;;;5.25;100.00
77639;BME280;66802;52.574;14.398;2024-02-26T10:53:56;100704.09;;;5.18;100.00
77639;BME280;66802;52.574;14.398;2024-02-26T10:56:28;100693.13;;;5.32;100.00
77639;BME280;66802;52.574;14.398;2024-02-26T10:58:58;100700.44;;;5.30;100.00
77639;BME280;66802;52.574;14.398;2024-02-26T11:01:24;100692.88;;;5.35;100.00
77639;BME280;66802;52.574;14.398;2024-02-26T11:03:52;100700.06;;;5.45;100.00
77639;BME280;66802;52.574;14.398;2024-02-26T11:06:19;100699.94;;;5.58;100.00
77639;BME280;66802;52.574;14.398;2024-02-26T11:08:53;100699.78;;;5.93;100.00
77639;BME280;66802;52.574;14.398;2024-02-26T11:11:20;100697.41;;;6.11;100.00
77639;BME280;66802;52.574;14.398;2024-02-26T11:13:47;100692.22;;;6.30;100.00
77639;BME280;66802;52.574;14.398;2024-02-26T11:16:21;100695.94;;;6.39;100.00
77639;BME280;66802;52.574;14.398;2024-02-26T11:18:48;100684.78;;;6.54;100.00
77639;BME280;66802;52.574;14.398;2024-02-26T11:21:16;100682.78;;;6.68;100.00
77639;BME280;66802;52.574;14.398;2024-02-26T11:23:44;100682.16;;;6.85;100.00
77639;BME280;66802;52.574;14.398;2024-02-26T11:26:12;100683.41;;;7.02;100.00
77639;BME280;66802;52.574;14.398;2024-02-26T11:28:40;100680.69;;;7.22;100.00
77639;BME280;66802;52.574;14.398;2024-02-26T11:31:06;100681.63;;;7.42;100.00
77639;BME280;66802;52.574;14.398;2024-02-26T11:33:33;100687.31;;;7.58;100.00
77639;BME280;66802;52.574;14.398;2024-02-26T11:36:02;100683.66;;;7.69;100.00
77639;BME280;66802;52.574;14.398;2024-02-26T11:38:32;100687.97;;;8.00;99.62
77639;BME280;66802;52.574;14.398;2024-02-26T11:40:58;100679.94;;;8.20;98.24
77639;BME280;66802;52.574;14.398;2024-02-26T11:43:50;100685.75;;;8.25;98.48
77639;BME280;66802;52.574;14.398;2024-02-26T11:46:33;100678.69;;;8.33;97.68
77639;BME280;66802;52.574;14.398;2024-02-26T11:49:00;100684.25;;;8.41;96.28
77639;BME280;66802;52.574;14.398;2024-02-26T11:51:28;100684.22;;;8.51;95.84
77639;BME280;66802;52.574;14.398;2024-02-26T11:53:57;100688.03;;;8.58;94.02
77639;BME280;66802;52.574;14.398;2024-02-26T11:56:24;100681.25;;;8.64;93.87
77639;BME280;66802;52.574;14.398;2024-02-26T11:59:03;100677.25;;;8.77;93.13
77639;BME280;66802;52.574;14.398;2024-02-26T12:01:48;100680.47;;;8.91;92.33
77639;BME280;66802;52.574;14.398;2024-02-26T12:04:27;100677.75;;;9.00;91.47
77639;BME280;66802;52.574;14.398;2024-02-26T12:06:56;100679.28;;;9.12;90.72
77639;BME280;66802;52.574;14.398;2024-02-26T12:09:39;100677.16;;;9.16;89.85
77639;BME280;66802;52.574;14.398;2024-02-26T12:12:10;100679.09;;;9.24;90.13
77639;BME280;66802;52.574;14.398;2024-02-26T12:14:56;100678.38;;;9.31;89.69
77639;BME280;66802;52.574;14.398;2024-02-26T12:17:23;100686.69;;;9.47;88.90
77639;BME280;66802;52.574;14.398;2024-02-26T12:19:49;100676.94;;;9.64;86.76
77639;BME280;66802;52.574;14.398;2024-02-26T12:22:16;100672.38;;;9.65;85.83
77639;BME280;66802;52.574;14.398;2024-02-26T12:24:42;100673.25;;;9.65;85.43
77639;BME280;66802;52.574;14.398;2024-02-26T12:27:08;100671.41;;;9.66;85.72
77639;BME280;66802;52.574;14.398;2024-02-26T12:29:33;100676.22;;;9.72;85.13
77639;BME280;66802;52.574;14.398;2024-02-26T12:32:00;100674.34;;;9.72;84.90
77639;BME280;66802;52.574;14.398;2024-02-26T12:34:26;100678.13;;;9.79;84.51
77639;BME280;66802;52.574;14.398;2024-02-26T12:36:52;100673.50;;;9.72;84.66
77639;BME280;66802;52.574;14.398;2024-02-26T12:39:19;100681.19;;;9.67;83.87
77639;BME280;66802;52.574;14.398;2024-02-26T12:41:46;100684.97;;;9.74;83.90
77639;BME280;66802;52.574;14.398;2024-02-26T12:44:16;100674.63;;;9.97;78.60
77639;BME280;66802;52.574;14.398;2024-02-26T12:46:41;100676.66;;;9.85;78.29
77639;BME280;66802;52.574;14.398;2024-02-26T12:49:07;100675.44;;;9.79;79.47
77639;BME280;66802;52.574;14.398;2024-02-26T12:51:33;100684.81;;;10.03;78.39
77639;BME280;66802;52.574;14.398;2024-02-26T12:53:59;100685.59;;;10.13;78.48
77639;BME280;66802;52.574;14.398;2024-02-26T12:56:25;100693.09;;;10.19;79.01
77639;BME280;66802;52.574;14.398;2024-02-26T12:58:53;100686.44;;;10.13;78.51
77639;BME280;66802;52.574;14.398;2024-02-26T13:01:23;100689.97;;;10.14;79.60
77639;BME280;66802;52.574;14.398;2024-02-26T13:03:50;100685.00;;;10.19;80.26
77639;BME280;66802;52.574;14.398;2024-02-26T13:06:18;100687.31;;;10.32;78.25
77639;BME280;66802;52.574;14.398;2024-02-26T13:08:45;100693.41;;;10.34;79.02
77639;BME280;66802;52.574;14.398;2024-02-26T13:11:10;100698.25;;;10.30;79.57
77639;BME280;66802;52.574;14.398;2024-02-26T13:13:36;100695.19;;;10.43;76.99
77639;BME280;66802;52.574;14.398;2024-02-26T13:16:03;100701.41;;;10.61;72.54
77639;BME280;66802;52.574;14.398;2024-02-26T13:18:30;100702.16;;;10.71;70.85
77639;BME280;66802;52.574;14.398;2024-02-26T13:21:07;100711.06;;;10.64;72.33
77639;BME280;66802;52.574;14.398;2024-02-26T13:23:34;100708.06;;;10.67;72.12
77639;BME280;66802;52.574;14.398;2024-02-26T13:25:59;100710.91;;;10.65;72.15
77639;BME280;66802;52.574;14.398;2024-02-26T13:28:24;100713.06;;;10.61;71.93
77639;BME280;66802;52.574;14.398;2024-02-26T13:30:54;100709.19;;;10.64;69.39
77639;BME280;66802;52.574;14.398;2024-02-26T13:33:23;100706.56;;;10.72;68.46
77639;BME280;66802;52.574;14.398;2024-02-26T13:35:49;100709.44;;;10.71;69.38
77639;BME280;66802;52.574;14.398;2024-02-26T13:38:14;100704.34;;;10.68;71.88
77639;BME280;66802;52.574;14.398;2024-02-26T13:40:40;100700.41;;;10.62;72.91
77639;BME280;66802;52.574;14.398;2024-02-26T13:43:05;100700.09;;;10.65;72.46
77639;BME280;66802;52.574;14.398;2024-02-26T13:45:34;100706.91;;;10.69;72.27
77639;BME280;66802;52.574;14.398;2024-02-26T13:48:05;100708.06;;;10.67;71.96
77639;BME280;66802;52.574;14.398;2024-02-26T13:50:30;100710.28;;;10.71;72.34
77639;BME280;66802;52.574;14.398;2024-02-26T13:52:56;100696.94;;;10.70;73.92
77639;BME280;66802;52.574;14.398;2024-02-26T13:55:23;100697.81;;;10.70;74.36
77639;BME280;66802;52.574;14.398;2024-02-26T13:57:52;100696.63;;;10.73;72.13
77639;BME280;66802;52.574;14.398;2024-02-26T14:00:19;100699.09;;;10.66;72.90
77639;BME280;66802;52.574;14.398;2024-02-26T14:02:45;100698.66;;;10.71;72.69
77639;BME280;66802;52.574;14.398;2024-02-26T14:05:10;100699.16;;;10.74;73.09
77639;BME280;66802;52.574;14.398;2024-02-26T14:07:36;100695.84;;;10.80;68.81
77639;BME280;66802;52.574;14.398;2024-02-26T14:10:02;100699.91;;;10.84;67.20
77639;BME280;66802;52.574;14.398;2024-02-26T14:12:27;100706.31;;;10.83;68.64
77639;BME280;66802;52.574;14.398;2024-02-26T14:14:53;100700.25;;;10.81;68.71
77639;BME280;66802;52.574;14.398;2024-02-26T14:17:21;100712.34;;;10.77;67.81
77639;BME280;66802;52.574;14.398;2024-02-26T14:19:48;100715.00;;;10.69;67.62
77639;BME280;66802;52.574;14.398;2024-02-26T14:22:14;100708.91;;;10.67;67.50
77639;BME280;66802;52.574;14.398;2024-02-26T14:24:43;100720.16;;;10.63;67.84
77639;BME280;66802;52.574;14.398;2024-02-26T14:27:10;100718.25;;;10.55;69.38
77639;BME280;66802;52.574;14.398;2024-02-26T14:29:39;100728.34;;;10.53;70.09
77639;BME280;66802;52.574;14.398;2024-02-26T14:32:07;100733.19;;;10.49;71.40
77639;BME280;66802;52.574;14.398;2024-02-26T14:34:32;100732.81;;;10.44;71.71
77639;BME280;66802;52.574;14.398;2024-02-26T14:36:58;100736.44;;;10.35;71.34
77639;BME280;66802;52.574;14.398;2024-02-26T14:39:23;100735.66;;;10.43;70.09
77639;BME280;66802;52.574;14.398;2024-02-26T14:41:49;100739.13;;;10.35;70.22
77639;BME280;66802;52.574;14.398;2024-02-26T14:44:14;100744.59;;;10.26;70.96
77639;BME280;66802;52.574;14.398;2024-02-26T14:46:40;100742.44;;;10.29;71.18
77639;BME280;66802;52.574;14.398;2024-02-26T14:49:05;100742.97;;;10.33;74.83
77639;BME280;66802;52.574;14.398;2024-02-26T14:51:31;100746.94;;;10.38;77.61
77639;BME280;66802;52.574;14.398;2024-02-26T14:53:56;100755.25;;;10.27;79.55
77639;BME280;66802;52.574;14.398;2024-02-26T14:56:24;100758.38;;;10.22;80.96
77639;BME280;66802;52.574;14.398;2024-02-26T14:58:49;100754.00;;;10.21;80.93
77639;BME280;66802;52.574;14.398;2024-02-26T15:01:15;100763.53;;;10.16;81.33
77639;BME280;66802;52.574;14.398;2024-02-26T15:03:40;100765.66;;;10.12;81.39
77639;BME280;66802;52.574;14.398;2024-02-26T15:06:06;100769.78;;;10.07;81.83
77639;BME280;66802;52.574;14.398;2024-02-26T15:08:31;100768.56;;;10.01;82.11
77639;BME280;66802;52.574;14.398;2024-02-26T15:10:57;100770.25;;;10.02;82.72
77639;BME280;66802;52.574;14.398;2024-02-26T15:13:22;100767.28;;;10.05;82.77
77639;BME280;66802;52.574;14.398;2024-02-26T15:15:48;100769.69;;;9.99;82.53
77639;BME280;66802;52.574;14.398;2024-02-26T15:18:13;100774.34;;;10.06;81.77
77639;BME280;66802;52.574;14.398;2024-02-26T15:20:42;100778.94;;;9.96;82.73
77639;BME280;66802;52.574;14.398;2024-02-26T15:23:13;100781.94;;;9.93;82.84
77639;BME280;66802;52.574;14.398;2024-02-26T15:25:39;100777.56;;;9.92;82.89
77639;BME280;66802;52.574;14.398;2024-02-26T15:28:06;100775.84;;;9.91;83.15
77639;BME280;66802;52.574;14.398;2024-02-26T15:30:32;100787.53;;;9.82;83.13
77639;BME280;66802;52.574;14.398;2024-02-26T15:32:58;100793.34;;;9.77;83.12
77639;BME280;66802;52.574;14.398;2024-02-26T15:35:23;100796.63;;;9.81;83.15
77639;BME280;66802;52.574;14.398;2024-02-26T15:37:49;100788.53;;;9.81;82.99
77639;BME280;66802;52.574;14.398;2024-02-26T15:40:14;100794.50;;;9.75;82.87
77639;BME280;66802;52.574;14.398;2024-02-26T15:42:41;100794.50;;;9.75;83.07